Time;durP1;ratioP1;P1;durP2;ratioP2;P2;SDS_P1;SDS_P2;PMS_P1;PMS_P2;Temp;Humidity;BMP_temperature;BMP_pressure;BME280_temperature;BME280_humidity;BME280_pressure;Samples;Min_cycle;Max_cycle;Signal;HPM_P1;HPM_P2
2021/05/06 00:02:00;;;;;;;6.75;4.78;;;;;;;4.09;100.00;100746.59;3580908;40;20083;-62
2021/05/06 00:32:07;;;;;;;6.60;4.53;;;;;;;3.92;100.00;100733.53;3582188;40;20110;-64
2021/05/06 00:34:34;;;;;;;5.40;3.90;;;;;;;3.86;100.00;100730.28;3581076;40;20061;-62
2021/05/06 00:37:00;;;;;;;6.75;4.55;;;;;;;3.87;100.00;100731.13;3580624;40;20061;-60
2021/05/06 00:39:29;;;;;;;6.53;4.50;;;;;;;3.83;100.00;100746.44;3581843;40;20048;-61
2021/05/06 00:56:20;;;;;;;8.40;5.32;;;;;;;3.83;100.00;100741.13;3582278;40;20095;-60
2021/05/06 01:01:47;;;;;;;9.25;4.72;;;;;;;3.77;100.00;100741.50;3582621;40;20151;-63
2021/05/06 01:04:22;;;;;;;7.30;4.97;;;;;;;3.80;100.00;100741.31;3581080;40;20150;-61
2021/05/06 01:06:57;;;;;;;8.40;6.05;;;;;;;3.76;100.00;100738.94;3581968;40;20040;-62
2021/05/06 01:09:27;;;;;;;7.75;5.70;;;;;;;3.82;100.00;100739.41;3581856;40;20044;-61
2021/05/06 01:11:56;;;;;;;7.57;5.22;;;;;;;3.79;100.00;100739.59;3581196;40;20051;-65
2021/05/06 01:14:22;;;;;;;7.83;5.87;;;;;;;3.73;100.00;100737.31;3581224;40;20071;-62
2021/05/06 01:16:48;;;;;;;9.68;6.25;;;;;;;3.71;100.00;100736.56;3582180;40;20292;-61
2021/05/06 01:19:14;;;;;;;10.30;7.00;;;;;;;3.67;100.00;100730.56;3581183;40;20048;-61
2021/05/06 01:21:40;;;;;;;11.95;6.95;;;;;;;3.74;100.00;100733.72;3582620;40;20129;-61
2021/05/06 01:24:07;;;;;;;9.63;7.13;;;;;;;3.63;100.00;100725.53;3580789;40;20040;-62
2021/05/06 01:26:36;;;;;;;9.68;6.45;;;;;;;3.67;100.00;100721.75;3581657;40;20057;-62
2021/05/06 01:29:04;;;;;;;9.90;6.80;;;;;;;3.66;100.00;100723.53;3581122;40;20515;-62
2021/05/06 01:31:33;;;;;;;12.03;6.60;;;;;;;3.66;100.00;100717.34;3581979;40;20122;-64
2021/05/06 01:34:06;;;;;;;11.65;7.00;;;;;;;3.72;100.00;100716.13;3581215;40;20056;-64
2021/05/06 01:36:36;;;;;;;9.98;6.95;;;;;;;3.67;100.00;100719.06;3581442;40;20548;-63
2021/05/06 01:39:16;;;;;;;12.07;7.95;;;;;;;3.64;100.00;100717.44;3581140;40;20493;-63
2021/05/06 01:41:48;;;;;;;12.50;9.05;;;;;;;3.55;100.00;100714.50;3582472;40;20090;-62
2021/05/06 01:44:19;;;;;;;10.77;7.65;;;;;;;3.53;100.00;100717.25;3581012;40;20033;-63
2021/05/06 01:47:04;;;;;;;14.25;9.25;;;;;;;3.48;100.00;100714.88;3581206;40;20076;-63
2021/05/06 01:58:02;;;;;;;15.05;9.52;;;;;;;3.28;100.00;100712.56;3581566;40;20044;-60
2021/05/06 02:00:30;;;;;;;14.30;9.70;;;;;;;3.28;100.00;100712.56;3581663;40;20041;-60
2021/05/06 02:02:58;;;;;;;16.27;9.27;;;;;;;3.25;100.00;100718.94;3581905;40;20405;-61
2021/05/06 02:05:24;;;;;;;15.88;9.68;;;;;;;3.25;100.00;100710.94;3581803;40;20137;-61
2021/05/06 02:07:54;;;;;;;16.48;9.63;;;;;;;3.17;100.00;100709.72;3633044;22;20444;-61
2021/05/06 02:10:24;;;;;;;12.25;9.50;;;;;;;3.16;100.00;100719.50;3568039;40;20081;-63
2021/05/06 02:12:50;;;;;;;15.57;10.10;;;;;;;3.07;100.00;100715.56;3571182;40;20053;-62
2021/05/06 02:15:20;;;;;;;14.82;9.93;;;;;;;3.10;100.00;100704.75;3571256;40;20053;-59
2021/05/06 02:17:46;;;;;;;;;;;;;;;3.06;100.00;100705.03;3571907;40;20084;-63
2021/05/06 02:20:15;;;;;;;16.80;10.13;;;;;;;3.13;100.00;100699.25;3570905;40;19952;-60
2021/05/06 02:22:41;;;;;;;15.98;11.52;;;;;;;3.17;100.00;100709.72;3571289;40;20064;-63
2021/05/06 02:25:08;;;;;;;17.75;12.10;;;;;;;3.23;100.00;100704.03;3572023;40;20089;-61
2021/05/06 02:27:36;;;;;;;15.13;10.95;;;;;;;3.18;100.00;100706.97;3570758;40;20041;-62
2021/05/06 02:30:02;;;;;;;18.77;11.13;;;;;;;3.15;100.00;100692.03;3570482;40;20073;-61
2021/05/06 02:32:28;;;;;;;17.77;11.85;;;;;;;3.05;100.00;100695.34;3571375;40;20315;-62
2021/05/06 02:34:55;;;;;;;17.67;11.38;;;;;;;3.03;100.00;100703.41;3571120;40;20052;-60
2021/05/06 02:37:21;;;;;;;15.80;11.02;;;;;;;2.99;100.00;100693.91;3571349;40;20081;-62
2021/05/06 02:39:47;;;;;;;18.15;11.13;;;;;;;2.95;100.00;100689.72;3571406;40;20070;-63
2021/05/06 02:42:13;;;;;;;18.85;11.43;;;;;;;2.93;100.00;100687.16;3571163;40;20068;-61
2021/05/06 02:44:40;;;;;;;19.10;11.55;;;;;;;2.95;100.00;100692.38;3571290;40;20571;-60
2021/05/06 02:47:07;;;;;;;18.13;12.10;;;;;;;2.86;100.00;100687.63;3571722;40;20065;-64
2021/05/06 02:49:33;;;;;;;19.58;12.25;;;;;;;2.74;100.00;100681.19;3571597;40;20056;-64
2021/05/06 02:52:04;;;;;;;18.35;12.40;;;;;;;2.71;100.00;100676.94;3571347;40;20044;-61
2021/05/06 02:54:36;;;;;;;18.65;12.27;;;;;;;2.68;100.00;100677.13;3571241;40;20060;-62
2021/05/06 02:57:07;;;;;;;22.40;12.98;;;;;;;2.66;100.00;100675.50;3571510;40;20119;-60
2021/05/06 03:02:43;;;;;;;19.63;12.77;;;;;;;2.71;100.00;100670.75;3572278;40;20048;-60
2021/05/06 03:05:24;;;;;;;18.77;13.13;;;;;;;2.63;100.00;100669.44;3544826;40;20065;-60
2021/05/06 03:07:59;;;;;;;22.27;12.63;;;;;;;2.63;100.00;100669.44;3572596;40;20080;-60
2021/05/06 03:10:35;;;;;;;21.58;12.85;;;;;;;2.69;100.00;100662.88;3580791;40;20052;-61
2021/05/06 03:24:07;;;;;;;24.77;15.18;;;;;;;2.27;100.00;100651.16;3538898;40;20760;-60
2021/05/06 03:26:33;;;;;;;26.25;16.65;;;;;;;2.29;100.00;100657.22;3570376;40;20300;-60
2021/05/06 03:29:02;;;;;;;26.48;16.98;;;;;;;2.34;100.00;100659.63;3581292;40;20059;-60
2021/05/06 03:42:25;;;;;;;25.35;17.00;;;;;;;2.26;100.00;100654.75;3581247;40;20051;-59
2021/05/06 03:45:04;;;;;;;;;;;;;;;2.26;100.00;100650.28;3581753;40;20386;-60
2021/05/06 04:12:50;;;;;;;41.92;22.77;;;;;;;2.22;100.00;100648.78;3572901;40;20460;-60
2021/05/06 04:15:34;;;;;;;36.38;21.65;;;;;;;2.29;100.00;100659.88;3573353;40;20790;-63
2021/05/06 04:18:06;;;;;;;35.72;22.27;;;;;;;2.30;100.00;100644.78;3572971;40;20323;-61
2021/05/06 04:26:11;;;;;;;36.28;22.13;;;;;;;2.32;100.00;100651.72;3573554;40;20431;-61
2021/05/06 04:36:56;;;;;;;35.83;22.48;;;;;;;2.32;100.00;100651.72;3573096;40;20040;-63
2021/05/06 04:39:31;;;;;;;34.83;22.73;;;;;;;2.35;100.00;100653.38;3573215;40;20423;-61
2021/05/06 04:42:13;;;;;;;40.13;23.90;;;;;;;2.40;100.00;100653.94;3573229;40;20535;-60
2021/05/06 04:50:24;;;;;;;39.47;25.02;;;;;;;2.35;100.00;100648.91;3572860;40;20068;-59
2021/05/06 04:55:41;;;;;;;41.30;24.13;;;;;;;2.37;100.00;100660.31;3573769;40;20124;-60
2021/05/06 04:58:41;;;;;;;40.17;24.25;;;;;;;2.51;100.00;100656.00;3573511;40;20059;-59
2021/05/06 05:03:57;;;;;;;43.00;26.75;;;;;;;2.59;100.00;100653.72;3573326;40;20060;-62
2021/05/06 05:06:26;;;;;;;40.78;24.98;;;;;;;2.62;100.00;100654.41;3573098;40;20424;-60
2021/05/06 05:08:56;;;;;;;48.40;26.38;;;;;;;2.68;100.00;100650.56;3571145;40;20134;-60
2021/05/06 05:11:34;;;;;;;47.10;26.90;;;;;;;2.71;100.00;100649.50;3572578;40;20482;-59
2021/05/06 05:14:26;;;;;;;42.70;26.30;;;;;;;2.73;100.00;100645.81;3571070;40;20065;-61
2021/05/06 05:25:02;;;;;;;46.03;26.52;;;;;;;2.84;100.00;100644.31;3571207;40;20049;-60
2021/05/06 05:27:30;;;;;;;45.50;27.08;;;;;;;2.95;100.00;100648.03;3572057;40;20048;-60
2021/05/06 05:29:56;;;;;;;47.80;28.92;;;;;;;3.05;100.00;100642.16;3572775;40;20046;-59
2021/05/06 05:32:22;;;;;;;54.28;32.30;;;;;;;3.11;100.00;100653.28;3571883;40;20476;-61
2021/05/06 05:34:54;;;;;;;47.15;28.83;;;;;;;3.13;100.00;100650.53;3571321;40;20120;-60
2021/05/06 05:37:22;;;;;;;52.70;32.33;;;;;;;3.07;100.00;100657.06;3570967;40;20134;-59
2021/05/06 05:39:58;;;;;;;56.25;30.52;;;;;;;3.18;100.00;100659.09;3571747;40;20143;-59
2021/05/06 05:42:31;;;;;;;59.33;32.17;;;;;;;3.11;100.00;100657.75;3571928;40;20081;-60
2021/05/06 05:55:54;;;;;;;58.97;31.95;;;;;;;3.43;100.00;100661.09;3570009;40;20071;-62
2021/05/06 05:58:20;;;;;;;51.33;30.10;;;;;;;3.69;100.00;100669.25;3569880;40;20053;-61
2021/05/06 06:00:47;;;;;;;53.92;32.63;;;;;;;3.78;100.00;100659.81;3565478;40;20052;-63
2021/05/06 06:03:13;;;;;;;48.75;30.50;;;;;;;3.98;100.00;100658.56;3571093;40;20408;-61
2021/05/06 06:05:39;;;;;;;49.65;32.00;;;;;;;4.00;100.00;100667.31;3571763;40;20123;-60
2021/05/06 06:08:05;;;;;;;49.60;30.10;;;;;;;4.01;100.00;100655.72;3571608;40;20104;-62
2021/05/06 06:10:31;;;;;;;46.63;29.48;;;;;;;4.02;100.00;100660.94;3572063;40;20370;-64
2021/05/06 06:12:57;;;;;;;49.85;31.52;;;;;;;3.89;100.00;100665.34;3572079;40;20395;-63
2021/05/06 06:15:34;;;;;;;50.38;31.73;;;;;;;4.00;100.00;100661.97;3571065;40;20084;-60
2021/05/06 06:18:10;;;;;;;48.65;32.17;;;;;;;4.06;100.00;100656.25;3570598;40;20636;-59
2021/05/06 06:20:39;;;;;;;55.17;31.92;;;;;;;4.08;100.00;100658.81;3570476;40;20049;-60
2021/05/06 06:23:05;;;;;;;50.20;30.55;;;;;;;4.35;100.00;100657.00;3570693;40;20057;-61
2021/05/06 06:25:31;;;;;;;49.25;32.40;;;;;;;4.35;100.00;100653.50;3571293;40;20357;-63
2021/05/06 06:27:56;;;;;;;46.65;30.05;;;;;;;4.33;100.00;100655.44;3570987;40;20045;-62
2021/05/06 06:30:23;;;;;;;49.05;31.27;;;;;;;4.31;100.00;100658.16;3571500;40;20438;-60
2021/05/06 06:32:50;;;;;;;57.25;30.88;;;;;;;4.49;100.00;100653.44;3570321;40;20060;-61
2021/05/06 06:35:16;;;;;;;50.63;30.50;;;;;;;4.66;100.00;100659.47;3570424;40;20080;-63
2021/05/06 06:37:42;;;;;;;47.45;28.67;;;;;;;4.81;100.00;100673.56;3570239;40;20041;-59
2021/05/06 06:40:10;;;;;;;48.58;29.85;;;;;;;4.99;100.00;100672.34;3570655;40;20416;-61
2021/05/06 06:42:36;;;;;;;47.03;29.83;;;;;;;5.09;100.00;100673.41;3571579;40;20319;-66
2021/05/06 06:45:02;;;;;;;41.65;27.50;;;;;;;5.14;100.00;100670.41;3572159;40;20097;-64
2021/05/06 06:47:28;;;;;;;40.80;28.52;;;;;;;4.90;100.00;100678.28;3570663;40;20045;-61
2021/05/06 06:49:54;;;;;;;41.28;26.70;;;;;;;4.97;100.00;100674.22;3571165;40;20059;-62
2021/05/06 06:52:21;;;;;;;44.95;31.10;;;;;;;4.96;100.00;100671.66;3570191;40;20123;-60
2021/05/06 06:57:38;;;;;;;47.97;29.70;;;;;;;5.13;100.00;100673.19;3566196;23;20061;-60
2021/05/06 07:00:05;;;;;;;44.60;30.33;;;;;;;5.24;100.00;100673.28;3570476;40;20045;-61
2021/05/06 07:02:31;;;;;;;43.88;27.25;;;;;;;5.41;100.00;100667.63;3570661;40;20049;-63
2021/05/06 07:04:57;;;;;;;45.67;29.52;;;;;;;5.57;100.00;100659.41;3571092;40;20131;-62
2021/05/06 07:07:24;;;;;;;42.75;27.90;;;;;;;5.60;100.00;100661.84;3569954;40;20108;-63
2021/05/06 07:09:50;;;;;;;38.65;26.13;;;;;;;5.38;100.00;100662.50;3570125;40;20032;-62
2021/05/06 07:12:16;;;;;;;38.05;25.90;;;;;;;5.63;100.00;100659.94;3569766;40;20041;-61
2021/05/06 07:14:42;;;;;;;41.65;27.08;;;;;;;5.95;100.00;100655.81;3568920;40;20108;-61
2021/05/06 07:17:08;;;;;;;38.40;27.55;;;;;;;5.91;100.00;100654.31;3571872;40;20052;-61
2021/05/06 07:19:35;;;;;;;37.17;24.45;;;;;;;5.84;100.00;100658.38;3572275;40;20400;-60
2021/05/06 07:22:01;;;;;;;42.67;27.30;;;;;;;5.75;100.00;100654.56;3572103;40;20414;-66
2021/05/06 07:24:27;;;;;;;39.72;26.63;;;;;;;6.05;100.00;100653.34;3571347;40;20044;-67
2021/05/06 07:26:53;;;;;;;38.97;27.02;;;;;;;6.09;100.00;100649.47;3572415;40;20125;-60
2021/05/06 07:29:21;;;;;;;34.20;23.95;;;;;;;6.52;100.00;100641.91;3571773;40;20331;-63
2021/05/06 07:31:48;;;;;;;33.88;24.92;;;;;;;6.55;100.00;100639.88;3571258;40;20180;-60
2021/05/06 07:34:14;;;;;;;36.72;25.45;;;;;;;6.58;100.00;100639.66;3571136;40;20071;-61
2021/05/06 07:36:40;;;;;;;37.75;28.08;;;;;;;6.74;100.00;100646.50;3571246;40;20053;-66
2021/05/06 07:39:07;;;;;;;36.42;26.38;;;;;;;6.80;100.00;100640.66;3571301;40;20073;-63
2021/05/06 07:41:34;;;;;;;36.58;25.15;;;;;;;6.49;100.00;100643.88;3570211;40;20055;-61
2021/05/06 07:44:00;;;;;;;39.95;27.05;;;;;;;6.57;100.00;100645.97;3570274;40;20089;-61
2021/05/06 07:46:26;;;;;;;44.38;30.40;;;;;;;7.00;100.00;100642.66;3569657;40;20045;-61
2021/05/06 07:48:53;;;;;;;37.10;27.27;;;;;;;7.23;100.00;100642.72;3570538;40;20060;-63
2021/05/06 07:51:19;;;;;;;32.67;23.25;;;;;;;7.43;100.00;100645.66;3569511;40;20061;-68
2021/05/06 07:53:48;;;;;;;31.98;23.92;;;;;;;7.78;100.00;100639.31;3570664;40;20061;-64
2021/05/06 07:56:15;;;;;;;29.20;22.08;;;;;;;7.78;100.00;100644.69;3570424;40;20061;-61
2021/05/06 07:58:42;;;;;;;36.10;23.55;;;;;;;7.48;100.00;100646.13;3570460;40;20081;-60
2021/05/06 08:01:09;;;;;;;31.65;25.33;;;;;;;7.79;100.00;100643.69;3569838;40;20053;-63
2021/05/06 08:03:36;;;;;;;30.88;21.52;;;;;;;8.18;100.00;100654.84;3569699;40;20044;-61
2021/05/06 08:06:02;;;;;;;26.92;19.75;;;;;;;8.67;100.00;100650.81;3568901;40;20063;-66
2021/05/06 08:08:28;;;;;;;24.65;18.88;;;;;;;8.52;100.00;100642.19;3569691;40;20068;-62
2021/05/06 08:10:56;;;;;;;23.15;18.38;;;;;;;8.40;100.00;100644.03;3568999;40;20407;-64
2021/05/06 08:13:22;;;;;;;22.05;18.05;;;;;;;8.50;100.00;100632.59;3569370;40;20053;-60
2021/05/06 08:15:50;;;;;;;24.70;18.70;;;;;;;8.25;100.00;100650.69;3569237;40;20049;-61
2021/05/06 08:18:16;;;;;;;21.25;16.67;;;;;;;8.05;100.00;100650.50;3568571;40;20037;-61
2021/05/06 08:20:42;;;;;;;23.02;16.70;;;;;;;7.97;100.00;100652.94;3570292;40;20081;-65
2021/05/06 08:23:09;;;;;;;16.35;13.75;;;;;;;7.79;100.00;100649.03;3569025;40;20066;-62
2021/05/06 08:25:35;;;;;;;16.30;13.10;;;;;;;7.97;100.00;100642.22;3569958;40;20046;-60
2021/05/06 08:28:01;;;;;;;17.40;12.30;;;;;;;8.14;100.00;100646.22;3569459;40;20100;-61
2021/05/06 08:30:27;;;;;;;15.18;10.80;;;;;;;8.00;100.00;100644.63;3569324;40;20065;-61
2021/05/06 08:32:55;;;;;;;16.10;11.68;;;;;;;7.95;100.00;100654.91;3569145;40;20414;-60
2021/05/06 08:35:21;;;;;;;14.43;11.70;;;;;;;8.04;100.00;100640.75;3568280;40;20053;-64
2021/05/06 08:37:47;;;;;;;16.00;11.75;;;;;;;8.51;100.00;100634.28;3569803;40;20397;-60
2021/05/06 08:40:13;;;;;;;15.05;12.15;;;;;;;8.09;100.00;100631.47;3568330;40;20076;-61
2021/05/06 08:42:40;;;;;;;14.68;12.30;;;;;;;8.14;100.00;100631.94;3568967;40;20052;-61
2021/05/06 08:45:07;;;;;;;13.55;11.18;;;;;;;8.48;100.00;100626.47;3569854;40;20060;-62
2021/05/06 08:47:34;;;;;;;11.70;9.82;;;;;;;8.76;100.00;100627.72;3569986;40;20049;-61
2021/05/06 08:50:01;;;;;;;14.52;9.63;;;;;;;9.23;100.00;100627.28;3570797;40;20064;-63
2021/05/06 08:52:28;;;;;;;12.52;9.85;;;;;;;8.65;100.00;100615.19;3571035;40;20048;-60
2021/05/06 08:54:56;;;;;;;12.77;9.80;;;;;;;8.69;100.00;100622.00;3571659;40;20083;-61
2021/05/06 08:57:24;;;;;;;9.93;8.63;;;;;;;8.94;100.00;100614.56;3570320;40;20072;-62
2021/05/06 08:59:51;;;;;;;10.38;7.88;;;;;;;9.09;100.00;100607.84;3571249;40;20049;-61
2021/05/06 09:02:17;;;;;;;10.60;8.45;;;;;;;8.89;100.00;100598.84;3570115;40;20163;-66
2021/05/06 09:04:43;;;;;;;9.88;8.63;;;;;;;9.54;100.00;100605.78;3570159;40;20052;-64
2021/05/06 09:07:11;;;;;;;9.57;8.50;;;;;;;9.74;100.00;100595.97;3570105;40;20289;-61
2021/05/06 09:09:44;;;;;;;9.50;8.02;;;;;;;9.82;100.00;100594.28;3569423;40;20040;-62
2021/05/06 09:12:10;;;;;;;10.85;8.55;;;;;;;9.74;100.00;100593.28;3569830;40;20047;-61
2021/05/06 09:14:39;;;;;;;8.07;7.20;;;;;;;9.92;100.00;100594.31;3570994;40;20311;-62
2021/05/06 09:17:05;;;;;;;9.90;6.90;;;;;;;10.03;100.00;100601.41;3571650;40;20060;-66
2021/05/06 09:19:31;;;;;;;9.88;6.57;;;;;;;10.26;100.00;100590.38;3571718;40;20313;-61
2021/05/06 09:21:58;;;;;;;7.20;5.82;;;;;;;10.18;100.00;100596.47;3571022;40;20092;-63
2021/05/06 09:24:27;;;;;;;8.05;5.88;;;;;;;10.42;100.00;100592.56;3570886;40;20092;-63
2021/05/06 09:26:54;;;;;;;9.77;6.05;;;;;;;10.52;100.00;100591.53;3571342;40;20299;-61
2021/05/06 09:29:35;;;;;;;8.65;5.80;;;;;;;10.39;100.00;100582.91;3571573;40;20051;-67
2021/05/06 09:32:09;;;;;;;6.80;5.65;;;;;;;10.29;100.00;100576.66;3571651;40;20052;-61
2021/05/06 09:34:39;;;;;;;6.75;6.03;;;;;;;10.72;100.00;100575.41;3570160;40;20049;-66
2021/05/06 09:37:08;;;;;;;7.43;5.60;;;;;;;10.68;100.00;100579.38;3571593;40;20061;-62
2021/05/06 09:39:35;;;;;;;7.07;5.55;;;;;;;10.76;100.00;100584.03;3571070;40;20057;-65
2021/05/06 09:42:11;;;;;;;5.63;4.90;;;;;;;11.60;100.00;100579.63;3570542;40;20076;-64
2021/05/06 09:44:51;;;;;;;8.10;4.72;;;;;;;11.56;100.00;100585.34;3569157;40;20056;-62
2021/05/06 09:47:17;;;;;;;5.38;4.28;;;;;;;11.53;100.00;100588.31;3569808;40;20052;-62
2021/05/06 09:49:43;;;;;;;6.03;4.80;;;;;;;11.31;95.84;100586.03;3567478;40;20073;-64
2021/05/06 09:52:09;;;;;;;5.22;4.32;;;;;;;10.84;95.40;100587.69;3568206;40;20053;-61
2021/05/06 09:54:45;;;;;;;9.40;4.82;;;;;;;10.72;97.96;100583.47;3567319;40;20056;-62
2021/05/06 09:57:11;;;;;;;6.00;4.55;;;;;;;10.57;99.76;100571.44;3566986;40;20163;-61
2021/05/06 09:59:39;;;;;;;8.52;4.78;;;;;;;10.73;100.00;100576.25;3567771;40;20368;-63
2021/05/06 10:02:09;;;;;;;6.00;4.70;;;;;;;10.93;97.61;100582.44;3567299;40;20037;-65
2021/05/06 10:04:37;;;;;;;7.60;4.75;;;;;;;11.45;91.80;100563.97;3567920;40;20056;-63
2021/05/06 10:07:13;;;;;;;7.05;4.65;;;;;;;11.96;89.31;100563.59;3632474;22;20576;-62
2021/05/06 10:09:57;;;;;;;6.40;4.47;;;;;;;11.62;82.21;100561.50;3577669;40;20097;-62
2021/05/06 10:12:24;;;;;;;5.57;4.15;;;;;;;11.62;80.05;100566.88;3577640;40;20738;-62
2021/05/06 10:14:50;;;;;;;4.82;4.20;;;;;;;12.15;85.77;100562.59;3577870;40;20052;-62
2021/05/06 10:17:18;;;;;;;6.00;4.28;;;;;;;12.54;81.12;100557.69;3577586;40;20393;-63
2021/05/06 10:19:45;;;;;;;6.47;3.95;;;;;;;11.94;76.69;100554.78;3577254;40;20092;-63
2021/05/06 10:22:14;;;;;;;4.72;3.88;;;;;;;11.38;77.54;100565.53;3577649;40;20420;-61
2021/05/06 10:24:41;;;;;;;4.65;3.80;;;;;;;11.51;83.24;100560.69;3577028;40;20040;-66
2021/05/06 10:27:10;;;;;;;6.13;4.20;;;;;;;11.58;71.92;100553.66;3577819;40;20043;-66
2021/05/06 10:29:36;;;;;;;5.72;4.10;;;;;;;11.95;74.64;100551.09;3576934;40;20052;-62
2021/05/06 10:32:02;;;;;;;6.00;4.47;;;;;;;12.03;77.59;100546.63;3578081;40;20047;-62
2021/05/06 10:34:31;;;;;;;4.53;4.05;;;;;;;11.86;81.58;100556.34;3577999;40;20060;-66
2021/05/06 10:36:57;;;;;;;5.18;4.18;;;;;;;11.61;76.70;100532.81;3578314;40;20049;-68
2021/05/06 10:39:36;;;;;;;5.05;4.20;;;;;;;11.73;79.02;100529.78;3578403;40;20052;-63
2021/05/06 10:42:34;;;;;;;6.07;4.60;;;;;;;12.64;74.30;100535.16;3578734;40;20044;-66
2021/05/06 10:45:02;;;;;;;6.35;4.47;;;;;;;12.80;75.34;100535.28;3578923;40;20048;-68
2021/05/06 10:47:54;;;;;;;6.20;4.13;;;;;;;12.43;70.65;100533.66;3579935;40;20137;-62
2021/05/06 10:50:25;;;;;;;8.18;4.60;;;;;;;12.20;74.41;100530.59;3578422;40;20064;-62
2021/05/06 10:52:52;;;;;;;5.45;4.30;;;;;;;11.56;77.85;100526.03;3577121;40;20141;-64
2021/05/06 10:55:43;;;;;;;5.38;4.43;;;;;;;11.46;77.19;100530.63;3575682;40;20040;-61
2021/05/06 10:58:33;;;;;;;6.75;4.55;;;;;;;10.66;80.92;100538.31;3578672;40;20064;-63
2021/05/06 11:01:30;;;;;;;7.10;5.45;;;;;;;10.50;94.55;100544.28;3576069;40;20429;-62
2021/05/06 11:04:07;;;;;;;7.38;5.60;;;;;;;10.03;99.23;100547.63;3576987;40;20048;-70
2021/05/06 11:06:42;;;;;;;8.07;6.00;;;;;;;9.91;100.00;100548.75;3576972;40;20583;-62
2021/05/06 11:10:03;;;;;;;7.97;5.50;;;;;;;9.26;100.00;100563.44;3576588;40;20072;-60
2021/05/06 11:12:34;;;;;;;6.80;4.82;;;;;;;9.09;100.00;100564.91;3577762;40;20056;-64
2021/05/06 11:15:36;;;;;;;5.68;4.50;;;;;;;9.03;100.00;100568.13;3577376;40;20045;-60
2021/05/06 11:18:07;;;;;;;4.40;4.00;;;;;;;8.77;100.00;100568.56;3574867;40;20092;-63
2021/05/06 11:20:55;;;;;;;4.45;4.05;;;;;;;8.39;100.00;100564.56;3577443;40;20326;-62
2021/05/06 11:23:30;;;;;;;6.18;3.88;;;;;;;9.00;100.00;100572.91;3576587;40;20162;-62
2021/05/06 11:26:08;;;;;;;4.82;4.28;;;;;;;8.65;100.00;100566.06;3577005;40;20336;-62
2021/05/06 11:28:44;;;;;;;5.25;4.18;;;;;;;8.64;100.00;100562.50;3573221;40;20056;-60
2021/05/06 11:31:44;;;;;;;4.78;4.20;;;;;;;8.68;100.00;100560.44;3609057;23;20075;-66
2021/05/06 11:34:31;;;;;;;5.93;4.30;;;;;;;8.35;100.00;100555.09;3537281;40;20057;-61
2021/05/06 11:37:11;;;;;;;8.82;4.13;;;;;;;8.37;100.00;100549.59;3539747;40;20050;-65
2021/05/06 11:39:55;;;;;;;4.10;3.50;;;;;;;8.53;100.00;100558.06;3544508;40;20061;-61
2021/05/06 11:42:23;;;;;;;7.53;3.75;;;;;;;8.42;100.00;100548.22;3550554;40;20074;-65
2021/05/06 11:45:13;;;;;;;7.72;4.07;;;;;;;8.53;100.00;100549.19;3547786;40;20054;-61
2021/05/06 11:47:40;;;;;;;12.95;4.70;;;;;;;8.42;100.00;100550.91;3547702;40;20056;-61
2021/05/06 11:50:23;;;;;;;10.43;4.38;;;;;;;8.56;100.00;100552.44;3542639;40;20062;-70
2021/05/06 11:52:51;;;;;;;3.35;2.85;;;;;;;9.02;100.00;100547.63;3548929;40;20067;-64
2021/05/06 11:55:34;;;;;;;3.78;3.30;;;;;;;9.17;100.00;100548.13;3548856;40;20050;-62
2021/05/06 11:58:01;;;;;;;5.13;3.00;;;;;;;9.80;100.00;100537.16;3550575;40;20064;-65
2021/05/06 12:00:29;;;;;;;3.75;2.60;;;;;;;9.61;100.00;100532.59;3550904;40;20282;-64
2021/05/06 12:02:57;;;;;;;4.35;2.63;;;;;;;10.01;100.00;100538.84;3551744;40;20046;-63
2021/05/06 12:05:25;;;;;;;4.38;3.30;;;;;;;9.56;100.00;100544.72;3549839;40;20066;-61
2021/05/06 12:08:02;;;;;;;12.87;4.93;;;;;;;9.37;100.00;100535.63;3550511;40;20069;-63
2021/05/06 12:10:29;;;;;;;19.25;6.10;;;;;;;9.27;100.00;100534.72;3546878;40;20061;-66
2021/05/06 12:13:01;;;;;;;17.83;6.70;;;;;;;9.42;100.00;100527.13;3550577;40;20127;-62
2021/05/06 12:15:27;;;;;;;13.50;5.32;;;;;;;9.60;100.00;100525.50;3550175;40;20104;-61
2021/05/06 12:18:18;;;;;;;11.10;4.50;;;;;;;10.03;100.00;100520.75;3549883;40;20046;-62
2021/05/06 12:21:05;;;;;;;9.57;4.63;;;;;;;9.74;100.00;100518.88;3546667;40;20054;-65
2021/05/06 12:23:31;;;;;;;5.93;3.10;;;;;;;10.09;100.00;100517.50;3542246;40;20057;-62
2021/05/06 12:25:57;;;;;;;6.75;3.83;;;;;;;10.11;100.00;100515.50;3547753;40;20042;-64
2021/05/06 12:28:23;;;;;;;6.35;3.53;;;;;;;10.20;100.00;100510.28;3546172;40;20314;-67
2021/05/06 12:30:56;;;;;;;5.07;3.40;;;;;;;10.21;100.00;100509.28;3546721;40;20049;-62
2021/05/06 12:33:30;;;;;;;5.97;3.47;;;;;;;10.22;100.00;100502.91;3534368;40;20053;-62
2021/05/06 12:35:56;;;;;;;4.50;3.55;;;;;;;9.97;98.55;100513.25;3537213;40;20086;-65
2021/05/06 12:38:22;;;;;;;3.78;3.38;;;;;;;9.76;97.55;100513.34;3536858;40;20094;-63
2021/05/06 12:40:50;;;;;;;5.05;3.20;;;;;;;9.74;94.86;100509.97;3541880;40;20046;-67
2021/05/06 12:43:24;;;;;;;4.20;3.20;;;;;;;9.96;93.03;100506.16;3537630;40;20054;-66
2021/05/06 12:46:07;;;;;;;4.20;2.78;;;;;;;9.87;83.85;100507.03;3533596;40;20058;-61
2021/05/06 12:48:53;;;;;;;5.28;2.90;;;;;;;9.84;87.07;100510.00;3537222;40;20057;-67
2021/05/06 12:51:20;;;;;;;3.72;3.10;;;;;;;9.89;89.70;100507.72;3537298;40;20133;-63
2021/05/06 12:54:01;;;;;;;3.92;3.17;;;;;;;9.89;91.82;100508.56;3537174;40;20054;-61
2021/05/06 12:56:29;;;;;;;3.80;3.00;;;;;;;9.67;91.79;100506.97;3537354;40;20710;-66
2021/05/06 12:58:55;;;;;;;5.28;3.42;;;;;;;9.53;96.26;100508.22;3536523;40;20373;-65
2021/05/06 13:01:30;;;;;;;7.15;3.08;;;;;;;9.71;98.74;100502.19;3536320;40;20073;-62
2021/05/06 13:03:59;;;;;;;4.70;3.42;;;;;;;9.53;100.00;100502.03;3534774;40;20125;-63
2021/05/06 13:06:31;;;;;;;5.40;3.70;;;;;;;9.62;100.00;100495.81;3535184;40;20061;-64
2021/05/06 13:08:59;;;;;;;4.55;3.95;;;;;;;9.38;100.00;100499.72;3537462;40;20054;-67
2021/05/06 13:11:26;;;;;;;4.82;3.70;;;;;;;9.59;100.00;100496.94;3535954;40;20356;-65
2021/05/06 13:13:54;;;;;;;5.00;3.78;;;;;;;9.42;100.00;100498.47;3532988;40;20050;-61
2021/05/06 13:19:07;;;;;;;4.28;3.33;;;;;;;9.57;100.00;100481.94;3630237;22;20042;-66
2021/05/06 13:21:34;;;;;;;5.90;3.45;;;;;;;9.91;99.47;100484.22;3570909;40;20059;-64
2021/05/06 13:24:03;;;;;;;5.68;3.88;;;;;;;10.25;98.81;100478.44;3568160;40;20379;-60
2021/05/06 13:26:31;;;;;;;7.35;3.70;;;;;;;10.64;92.90;100486.44;3567845;40;20042;-65
2021/05/06 13:28:59;;;;;;;4.00;3.17;;;;;;;11.21;89.92;100479.13;3567646;40;20423;-60
2021/05/06 13:31:32;;;;;;;5.95;3.83;;;;;;;10.57;81.79;100478.13;3564018;40;20699;-61
2021/05/06 13:34:17;;;;;;;5.55;3.45;;;;;;;10.71;77.52;100476.78;3567281;40;20085;-63
2021/05/06 13:36:45;;;;;;;4.95;3.85;;;;;;;10.93;77.24;100474.75;3559999;40;20142;-63
2021/05/06 13:39:13;;;;;;;4.72;3.17;;;;;;;11.07;81.83;100465.31;3567432;40;20056;-63
2021/05/06 13:41:42;;;;;;;5.97;4.63;;;;;;;10.75;77.17;100472.81;3567934;40;20057;-67
2021/05/06 13:44:09;;;;;;;6.50;4.85;;;;;;;10.18;81.83;100470.91;3566550;40;20048;-63
2021/05/06 13:49:01;;;;;;;8.38;5.82;;;;;;;9.85;88.76;100471.34;3597360;23;20048;-64
2021/05/06 13:51:29;;;;;;;7.50;5.28;;;;;;;10.05;92.39;100464.16;3567025;40;20048;-63
2021/05/06 13:53:56;;;;;;;5.97;5.38;;;;;;;10.12;91.41;100465.28;3567514;40;20338;-62
2021/05/06 13:56:23;;;;;;;7.63;6.28;;;;;;;9.95;90.80;100467.69;3567066;40;20068;-68
2021/05/06 13:58:49;;;;;;;9.30;6.30;;;;;;;10.22;96.74;100454.47;3567080;40;20134;-63
2021/05/06 14:01:17;;;;;;;8.32;6.55;;;;;;;10.25;94.43;100454.22;3567650;40;20060;-62
2021/05/06 14:03:43;;;;;;;8.43;6.15;;;;;;;9.98;96.60;100448.59;3567949;40;21368;-61
2021/05/06 14:06:09;;;;;;;6.60;5.63;;;;;;;10.44;95.44;100445.31;3567836;40;20118;-61
2021/05/06 14:08:35;;;;;;;6.95;5.57;;;;;;;10.45;93.66;100442.47;3568641;40;20424;-63